Flight Track Log - Related Links

Times and Time Zones

All times are in EDT time to prevent confusion due to time zone crossing. See the CSH9555 flight status page for this flight to view local times or setup timezone preferences in your user account.

Time Position Orientation Groundspeed Altitude Reporting Facility
EDT Latitude Longitude Course Direction KTS MPH feet Rate Location/Type
Fri 07:55:00 AM 30.7197 121.0905 204° Southwest  Level Estimated
Fri 07:56:00 AM 30.6400 121.0497 204° Southwest  Level Estimated
Fri 07:57:00 AM 30.5593 121.0086 204° Southwest  Level Estimated
Fri 07:58:00 AM 30.4785 120.9675 204° Southwest  Level Estimated
Fri 07:59:00 AM 30.3978 120.9265 204° Southwest  Level Estimated
Fri 08:00:00 AM 30.3170 120.8855 204° Southwest  Level Estimated
Fri 08:01:00 AM 30.2362 120.8446 204° Southwest  Level Estimated
Fri 08:02:00 AM 30.1555 120.8038 204° Southwest  Level Estimated
Fri 08:03:00 AM 30.0746 120.7630 204° Southwest  Level Estimated
Fri 08:04:00 AM 29.9938 120.7223 204° Southwest  Level Estimated
Fri 08:05:00 AM 29.9130 120.6817 204° Southwest  Level Estimated
Fri 08:06:00 AM 29.8322 120.6411 204° Southwest  Level Estimated
Fri 08:07:00 AM 29.7513 120.6006 204° Southwest  Level Estimated
Fri 08:08:00 AM 29.6705 120.5602 203° Southwest  Level Estimated
Fri 08:09:00 AM 29.5896 120.5199 203° Southwest  Level Estimated
Fri 08:10:00 AM 29.5087 120.4796 203° Southwest  Level Estimated
Fri 08:11:00 AM 29.4278 120.4393 203° Southwest  Level Estimated
Fri 08:12:00 AM 29.3469 120.3991 203° Southwest  Level Estimated
Fri 08:13:00 AM 29.2660 120.3590 203° Southwest  Level Estimated
Fri 08:14:00 AM 29.1850 120.3190 203° Southwest  Level Estimated
Fri 08:15:00 AM 29.1041 120.2790 203° Southwest  Level Estimated
Fri 08:16:00 AM 29.0231 120.2391 203° Southwest  Level Estimated
Fri 08:17:00 AM 28.9422 120.1992 203° Southwest  Level Estimated
Fri 08:18:00 AM 28.8612 120.1594 203° Southwest  Level Estimated
Fri 08:19:00 AM 28.7802 120.1197 203° Southwest  Level Estimated
Fri 08:20:00 AM 28.6992 120.0800 203° Southwest  Level Estimated
Fri 08:21:00 AM 28.6182 120.0404 203° Southwest  Level Estimated
Fri 08:22:00 AM 28.5371 120.0009 203° Southwest  Level Estimated
Fri 08:23:00 AM 28.4561 119.9614 203° Southwest  Level Estimated
Fri 08:24:00 AM 28.3751 119.9220 203° Southwest  Level Estimated
Fri 08:25:00 AM 28.2940 119.8826 203° Southwest  Level Estimated
Fri 08:26:00 AM 28.2129 119.8433 203° Southwest  Level Estimated
Fri 08:27:00 AM 28.1318 119.8041 203° Southwest  Level Estimated
Fri 08:28:00 AM 28.0507 119.7649 203° Southwest  Level Estimated
Fri 08:29:00 AM 27.9696 119.7258 203° Southwest  Level Estimated
Fri 08:30:00 AM 27.8885 119.6867 203° Southwest  Level Estimated
Fri 08:31:00 AM 27.8074 119.6477 203° Southwest  Level Estimated
Fri 08:32:00 AM 27.7262 119.6087 203° Southwest  Level Estimated
Fri 08:33:00 AM 27.6451 119.5698 203° Southwest  Level Estimated
Fri 08:34:00 AM 27.5639 119.5310 203° Southwest  Level Estimated
Fri 08:35:00 AM 27.4828 119.4922 203° Southwest  Level Estimated
Fri 08:36:00 AM 27.4016 119.4535 203° Southwest  Level Estimated
Fri 08:37:00 AM 27.3204 119.4148 203° Southwest  Level Estimated
Fri 08:38:00 AM 27.2392 119.3762 203° Southwest  Level Estimated
Fri 08:39:00 AM 27.1580 119.3377 203° Southwest  Level Estimated
Fri 08:40:00 AM 27.0767 119.2992 203° Southwest  Level Estimated
Fri 08:41:00 AM 26.9955 119.2607 203° Southwest  Level Estimated
Fri 08:42:00 AM 26.9143 119.2224 203° Southwest  Level Estimated
Fri 08:43:00 AM 26.8330 119.1840 203° Southwest  Level Estimated
Fri 08:44:00 AM 26.7517 119.1457 203° Southwest  Level Estimated
Fri 08:45:00 AM 26.6705 119.1075 203° Southwest  Level Estimated
Fri 08:46:00 AM 26.5892 119.0694 203° Southwest  Level Estimated
Fri 08:47:00 AM 26.5079 119.0312 203° Southwest  Level Estimated
Fri 08:48:00 AM 26.4266 118.9932 203° Southwest  Level Estimated
Fri 08:49:00 AM 26.3453 118.9552 203° Southwest  Level Estimated
Fri 08:50:00 AM 26.2639 118.9172 203° Southwest  Level Estimated
Fri 08:51:00 AM 26.1826 118.8793 203° Southwest  Level Estimated
Fri 08:52:00 AM 26.1012 118.8415 203° Southwest  Level Estimated
Fri 08:53:00 AM 26.0199 118.8037 203° Southwest  Level Estimated
Fri 08:54:00 AM 25.9385 118.7660 203° Southwest  Level Estimated
Fri 08:55:00 AM 25.8571 118.7283 203° Southwest  Level Estimated
Fri 08:56:00 AM 25.7757 118.6906 203° Southwest  Level Estimated
Fri 08:57:00 AM 25.6944 118.6531 203° Southwest  Level Estimated
Fri 08:58:00 AM 25.6129 118.6155 203° Southwest  Level Estimated
Fri 08:59:00 AM 25.5315 118.5780 203° Southwest  Level Estimated
Fri 09:00:00 AM 25.4501 118.5406 203° Southwest  Level Estimated
Fri 09:01:00 AM 25.3687 118.5032 203° Southwest  Level Estimated
Fri 09:02:00 AM 25.2872 118.4659 203° Southwest  Level Estimated
Fri 09:03:00 AM 25.2058 118.4286 202° Southwest  Level Estimated
Fri 09:04:00 AM 25.1243 118.3914 202° Southwest  Level Estimated
Fri 09:05:00 AM 25.0429 118.3542 202° Southwest  Level Estimated
Fri 09:06:00 AM 24.9614 118.3171 202° Southwest  Level Estimated
Fri 09:07:00 AM 24.8799 118.2800 202° Southwest  Level Estimated
Fri 09:08:00 AM 24.7984 118.2430 202° Southwest  Level Estimated
Fri 09:09:00 AM 24.7169 118.2060 202° Southwest  Level Estimated
Fri 09:10:00 AM 24.6353 118.1691 202° Southwest  Level Estimated
Fri 09:11:00 AM 24.5538 118.1322 202° Southwest  Level Estimated

Login

Don't have an account? Register now (free) for customized features, flight alerts, and more!